Time;durP1;ratioP1;P1;durP2;ratioP2;P2;SDS_P1;SDS_P2;PMS_P1;PMS_P2;Temp;Humidity;BMP_temperature;BMP_pressure;BME280_temperature;BME280_humidity;BME280_pressure;Samples;Min_cycle;Max_cycle;Signal;HPM_P1;HPM_P2
2022/01/24 00:00:00;;;;;;;17.63;9.45;;;;;;;;;;5045531;28;20100;-59
2022/01/24 00:02:29;;;;;;;20.25;9.75;;;;;;;;;;5044755;28;20078;-59
2022/01/24 00:04:56;;;;;;;18.42;9.32;;;;;;;;;;5044120;28;20052;-59
2022/01/24 00:07:24;;;;;;;18.00;8.95;;;;;;;;;;5045160;28;20029;-59
2022/01/24 00:09:53;;;;;;;19.15;9.63;;;;;;;;;;5045728;28;20504;-59
2022/01/24 00:12:30;;;;;;;17.42;9.77;;;;;;;;;;5044170;28;20523;-60
2022/01/24 00:28:05;;;;;;;19.67;9.55;;;;;;;;;;5024791;28;20083;-59
2022/01/24 00:30:31;;;;;;;18.33;9.73;;;;;;;;;;5028309;28;20044;-60
2022/01/24 00:32:58;;;;;;;17.92;8.82;;;;;;;;;;5045161;28;20029;-60
2022/01/24 00:35:25;;;;;;;18.83;9.63;;;;;;;;;;5034836;28;20350;-59
2022/01/24 00:37:52;;;;;;;18.80;10.25;;;;;;;;;;5024745;28;20408;-59
2022/01/24 00:40:18;;;;;;;21.35;10.32;;;;;;;;;;5024709;28;20032;-59
2022/01/24 00:42:54;;;;;;;19.20;9.13;;;;;;;;;;5024946;28;20040;-59
2022/01/24 00:48:30;;;;;;;16.35;9.15;;;;;;;;;;5024951;28;20064;-59
2022/01/24 00:56:11;;;;;;;20.50;10.20;;;;;;;;;;5029302;28;20035;-59
2022/01/24 00:58:37;;;;;;;21.70;10.50;;;;;;;;;;5026159;28;20031;-59
2022/01/24 01:01:04;;;;;;;19.77;9.60;;;;;;;;;;5028191;28;20025;-59
2022/01/24 01:03:30;;;;;;;20.77;10.77;;;;;;;;;;5051456;28;20552;-59
2022/01/24 01:19:29;;;;;;;18.63;10.10;;;;;;;;;;5026107;28;20882;-59
2022/01/24 01:21:55;;;;;;;20.40;9.88;;;;;;;;;;5032394;28;20029;-59
2022/01/24 01:24:22;;;;;;;19.25;9.50;;;;;;;;;;5032372;28;20026;-59
2022/01/24 01:27:02;;;;;;;19.48;10.52;;;;;;;;;;5026107;28;20219;-59
2022/01/24 01:29:34;;;;;;;18.50;10.07;;;;;;;;;;5025743;28;20104;-59
2022/01/24 01:37:38;;;;;;;21.73;10.82;;;;;;;;;;5026175;28;20052;-59
2022/01/24 01:55:58;;;;;;;18.33;9.27;;;;;;;;;;5030100;28;20501;-59
2022/01/24 01:58:24;;;;;;;23.75;10.98;;;;;;;;;;5029392;28;20378;-59
2022/01/24 02:00:53;;;;;;;18.17;9.05;;;;;;;;;;5029730;28;20025;-59
2022/01/24 02:03:19;;;;;;;20.67;9.85;;;;;;;;;;5029015;28;20046;-59
2022/01/24 02:05:45;;;;;;;19.52;9.20;;;;;;;;;;5029561;28;20025;-59
2022/01/24 02:08:12;;;;;;;17.20;8.48;;;;;;;;;;5029610;28;20127;-59
2022/01/24 02:10:41;;;;;;;17.30;8.63;;;;;;;;;;5029538;28;20104;-59
2022/01/24 02:13:07;;;;;;;18.65;8.93;;;;;;;;;;5027940;28;20017;-59
2022/01/24 02:25:59;;;;;;;18.50;9.60;;;;;;;;;;5029303;28;20041;-59
2022/01/24 02:28:29;;;;;;;17.42;9.10;;;;;;;;;;5028905;28;20025;-58
2022/01/24 02:33:43;;;;;;;19.33;10.27;;;;;;;;;;5041945;28;20098;-59
2022/01/24 02:36:10;;;;;;;18.63;9.35;;;;;;;;;;5029229;28;20021;-59
2022/01/24 02:49:32;;;;;;;18.42;9.68;;;;;;;;;;5046302;28;20511;-58
2022/01/24 02:52:11;;;;;;;19.95;10.10;;;;;;;;;;5028684;28;20022;-59
2022/01/24 02:54:39;;;;;;;18.20;9.45;;;;;;;;;;5030706;28;20020;-59
2022/01/24 02:57:06;;;;;;;21.60;11.18;;;;;;;;;;5049088;28;20036;-58
2022/01/24 02:59:32;;;;;;;19.50;9.90;;;;;;;;;;5048709;28;20036;-58
2022/01/24 03:01:58;;;;;;;20.60;10.23;;;;;;;;;;5046699;28;20060;-58
2022/01/24 03:04:24;;;;;;;18.92;9.82;;;;;;;;;;5048272;28;20037;-59
2022/01/24 03:06:51;;;;;;;20.08;10.13;;;;;;;;;;5048258;28;20039;-59
2022/01/24 03:09:17;;;;;;;18.40;9.60;;;;;;;;;;5048241;28;20025;-58
2022/01/24 03:14:29;;;;;;;21.00;10.95;;;;;;;;;;5028266;28;20044;-58
2022/01/24 03:16:56;;;;;;;24.40;11.77;;;;;;;;;;5028565;28;20531;-58
2022/01/24 03:19:22;;;;;;;22.15;12.13;;;;;;;;;;5028147;28;20463;-59
2022/01/24 03:21:48;;;;;;;22.25;11.45;;;;;;;;;;5028309;28;20671;-58
2022/01/24 03:24:15;;;;;;;24.88;12.30;;;;;;;;;;5027725;28;20045;-58
2022/01/24 03:26:41;;;;;;;25.77;12.63;;;;;;;;;;5027924;28;20570;-58
2022/01/24 03:29:07;;;;;;;24.23;12.40;;;;;;;;;;5028138;28;20030;-58
2022/01/24 03:31:34;;;;;;;25.77;12.75;;;;;;;;;;5036155;28;20025;-58
2022/01/24 03:34:01;;;;;;;24.30;12.88;;;;;;;;;;5032606;28;20037;-58
2022/01/24 03:36:27;;;;;;;26.25;13.07;;;;;;;;;;5027991;28;20657;-59
2022/01/24 03:38:53;;;;;;;25.38;12.32;;;;;;;;;;5028089;28;20029;-58
2022/01/24 03:41:19;;;;;;;22.83;11.75;;;;;;;;;;5027697;28;20105;-58
2022/01/24 03:43:45;;;;;;;20.95;10.18;;;;;;;;;;5027750;28;20449;-58
2022/01/24 03:46:27;;;;;;;23.23;11.65;;;;;;;;;;5027896;28;20025;-59
2022/01/24 03:48:56;;;;;;;22.27;11.48;;;;;;;;;;5027756;28;20024;-58
2022/01/24 03:51:24;;;;;;;24.50;11.93;;;;;;;;;;5047443;28;20021;-59
2022/01/24 03:53:50;;;;;;;23.00;11.68;;;;;;;;;;5036690;28;20037;-59
2022/01/24 03:56:17;;;;;;;21.55;10.52;;;;;;;;;;5027832;28;20017;-58
2022/01/24 03:58:44;;;;;;;19.67;10.45;;;;;;;;;;5027375;28;20484;-59
2022/01/24 04:01:11;;;;;;;21.25;11.27;;;;;;;;;;5026914;28;20413;-58
2022/01/24 04:03:38;;;;;;;20.38;10.32;;;;;;;;;;5030045;28;20041;-59
2022/01/24 04:06:05;;;;;;;23.10;12.25;;;;;;;;;;5047398;28;20035;-59
2022/01/24 04:08:31;;;;;;;21.73;10.98;;;;;;;;;;5045863;28;20044;-58
2022/01/24 04:10:58;;;;;;;24.40;11.45;;;;;;;;;;5046933;28;20036;-58
2022/01/24 04:13:37;;;;;;;25.35;11.90;;;;;;;;;;5043371;28;20096;-59
2022/01/24 04:23:46;;;;;;;24.02;11.63;;;;;;;;;;5026850;28;20160;-58
2022/01/24 04:26:13;;;;;;;24.10;11.85;;;;;;;;;;5027169;28;20059;-59
2022/01/24 04:28:39;;;;;;;23.60;11.05;;;;;;;;;;5026591;28;20033;-59
2022/01/24 04:31:05;;;;;;;22.17;11.20;;;;;;;;;;5033032;28;20075;-58
2022/01/24 04:33:31;;;;;;;22.27;11.43;;;;;;;;;;5044747;28;20083;-59
2022/01/24 04:35:57;;;;;;;24.17;11.30;;;;;;;;;;5045698;28;20033;-59
2022/01/24 04:38:24;;;;;;;21.58;10.88;;;;;;;;;;5046421;28;20096;-58
2022/01/24 04:40:55;;;;;;;20.38;10.25;;;;;;;;;;5046948;28;20515;-58
2022/01/24 04:46:15;;;;;;;20.85;10.77;;;;;;;;;;5041010;28;20033;-58
2022/01/24 04:56:38;;;;;;;21.73;11.10;;;;;;;;;;5047169;28;20435;-58
2022/01/24 04:59:05;;;;;;;19.52;10.23;;;;;;;;;;5046808;28;20553;-58
2022/01/24 05:01:31;;;;;;;19.13;10.13;;;;;;;;;;5045531;28;20385;-58
2022/01/24 05:03:57;;;;;;;18.83;9.88;;;;;;;;;;5030142;28;20053;-58
2022/01/24 05:06:23;;;;;;;18.10;9.77;;;;;;;;;;5026190;28;20027;-58
2022/01/24 05:08:49;;;;;;;22.17;11.43;;;;;;;;;;5038428;28;20061;-58
2022/01/24 05:11:21;;;;;;;20.25;10.40;;;;;;;;;;5027034;28;20033;-58
2022/01/24 05:24:30;;;;;;;17.42;9.00;;;;;;;;;;5044905;28;20056;-58
2022/01/24 05:26:56;;;;;;;19.20;9.75;;;;;;;;;;5037862;28;20045;-58
2022/01/24 05:29:22;;;;;;;20.75;10.25;;;;;;;;;;5025832;28;20032;-58
2022/01/24 05:31:48;;;;;;;19.00;9.85;;;;;;;;;;5026466;28;20032;-58
2022/01/24 05:34:15;;;;;;;16.83;8.85;;;;;;;;;;5025712;28;20044;-58
2022/01/24 05:36:41;;;;;;;17.85;9.18;;;;;;;;;;5027397;28;20416;-59
2022/01/24 05:39:07;;;;;;;17.63;9.25;;;;;;;;;;5026438;28;20176;-58
2022/01/24 05:41:35;;;;;;;15.90;8.60;;;;;;;;;;5026572;28;20033;-58
2022/01/24 05:44:01;;;;;;;17.92;9.25;;;;;;;;;;5026039;28;20071;-58
2022/01/24 05:46:27;;;;;;;16.00;8.20;;;;;;;;;;5025583;28;20021;-58
2022/01/24 05:48:54;;;;;;;18.42;9.73;;;;;;;;;;5029437;28;20037;-58
2022/01/24 05:51:21;;;;;;;17.63;9.57;;;;;;;;;;5043553;28;20039;-58
2022/01/24 05:53:47;;;;;;;17.67;9.52;;;;;;;;;;5035238;28;20021;-58
2022/01/24 05:56:14;;;;;;;17.27;9.10;;;;;;;;;;5025696;28;20033;-58
2022/01/24 05:58:40;;;;;;;19.88;10.65;;;;;;;;;;5026236;28;20040;-58
2022/01/24 06:01:06;;;;;;;20.08;11.18;;;;;;;;;;5033841;28;20567;-58
2022/01/24 06:03:33;;;;;;;20.40;11.18;;;;;;;;;;5046059;28;20104;-58
2022/01/24 06:05:59;;;;;;;22.67;12.55;;;;;;;;;;5038718;28;20033;-58
2022/01/24 06:08:25;;;;;;;22.23;12.05;;;;;;;;;;5025620;28;20076;-58
2022/01/24 06:10:53;;;;;;;20.77;10.98;;;;;;;;;;5025676;28;20069;-58
2022/01/24 06:13:19;;;;;;;19.83;11.13;;;;;;;;;;5025680;28;20031;-58
2022/01/24 06:15:45;;;;;;;21.92;11.23;;;;;;;;;;5029380;28;20033;-58
2022/01/24 06:18:11;;;;;;;19.75;10.65;;;;;;;;;;5036868;28;20025;-57
2022/01/24 06:20:37;;;;;;;20.83;10.75;;;;;;;;;;5037799;28;20037;-57
2022/01/24 06:23:04;;;;;;;18.08;10.63;;;;;;;;;;5035713;28;20512;-57
2022/01/24 06:25:30;;;;;;;21.27;11.25;;;;;;;;;;5045079;28;20029;-57
2022/01/24 06:27:56;;;;;;;21.77;11.35;;;;;;;;;;5033162;28;20136;-57
2022/01/24 06:30:22;;;;;;;21.88;11.00;;;;;;;;;;5029686;28;20487;-57
2022/01/24 06:32:48;;;;;;;19.48;10.60;;;;;;;;;;5038157;28;20493;-57
2022/01/24 06:35:15;;;;;;;22.10;11.80;;;;;;;;;;5038411;28;20052;-57
2022/01/24 06:37:42;;;;;;;23.00;11.52;;;;;;;;;;5041719;28;20029;-57
2022/01/24 06:40:09;;;;;;;24.08;12.65;;;;;;;;;;5048434;28;20120;-57
2022/01/24 06:42:38;;;;;;;26.00;13.13;;;;;;;;;;5046149;28;20714;-57
2022/01/24 06:45:04;;;;;;;20.90;11.25;;;;;;;;;;5050512;28;20033;-57
2022/01/24 06:47:31;;;;;;;24.27;12.38;;;;;;;;;;5050205;28;20889;-57
2022/01/24 06:49:58;;;;;;;22.20;12.25;;;;;;;;;;5049483;28;20132;-57
2022/01/24 06:52:24;;;;;;;24.42;11.77;;;;;;;;;;5047831;28;20229;-57
2022/01/24 06:54:50;;;;;;;23.23;11.40;;;;;;;;;;5049191;28;20032;-57
2022/01/24 06:57:16;;;;;;;21.65;11.40;;;;;;;;;;5049623;28;20080;-57
2022/01/24 06:59:43;;;;;;;23.48;11.88;;;;;;;;;;5047189;28;20028;-56
2022/01/24 07:02:10;;;;;;;19.55;11.23;;;;;;;;;;5033422;28;20033;-56
2022/01/24 07:04:39;;;;;;;18.67;10.27;;;;;;;;;;5029090;28;20412;-56
2022/01/24 07:07:05;;;;;;;19.25;10.18;;;;;;;;;;5034177;28;20040;-56
2022/01/24 07:09:31;;;;;;;21.73;11.32;;;;;;;;;;5039517;28;20048;-56
2022/01/24 07:11:57;;;;;;;18.42;10.20;;;;;;;;;;5032913;28;20061;-56
2022/01/24 07:14:23;;;;;;;21.65;11.00;;;;;;;;;;5041868;28;20021;-56
2022/01/24 07:19:22;;;;;;;17.95;9.75;;;;;;;;;;5035456;28;20040;-55
2022/01/24 07:21:48;;;;;;;16.23;9.23;;;;;;;;;;5045094;28;20079;-55
2022/01/24 07:24:14;;;;;;;21.15;11.77;;;;;;;;;;5048230;28;20504;-55
2022/01/24 07:26:40;;;;;;;22.60;12.23;;;;;;;;;;5048677;28;20135;-55
2022/01/24 07:29:06;;;;;;;21.48;11.55;;;;;;;;;;5035043;28;20059;-55
2022/01/24 07:31:32;;;;;;;20.70;10.50;;;;;;;;;;5053564;28;20495;-54
2022/01/24 07:33:58;;;;;;;19.90;11.30;;;;;;;;;;5068807;28;20455;-54
2022/01/24 07:36:25;;;;;;;20.17;11.32;;;;;;;;;;5055564;28;20071;-55
2022/01/24 07:38:52;;;;;;;20.10;11.00;;;;;;;;;;5043552;28;20025;-55
2022/01/24 07:41:24;;;;;;;18.67;10.05;;;;;;;;;;5037191;28;20037;-55
2022/01/24 07:43:50;;;;;;;20.00;10.82;;;;;;;;;;5028169;28;20021;-56
2022/01/24 07:46:16;;;;;;;19.98;10.90;;;;;;;;;;5030042;28;20384;-55
2022/01/24 07:48:42;;;;;;;21.38;11.75;;;;;;;;;;5030258;28;20104;-54
2022/01/24 07:51:09;;;;;;;25.33;12.85;;;;;;;;;;5027257;28;20045;-55
2022/01/24 07:53:35;;;;;;;31.50;15.57;;;;;;;;;;5027077;28;20021;-55
2022/01/24 07:56:01;;;;;;;32.63;17.02;;;;;;;;;;5027837;28;20079;-55
2022/01/24 07:58:28;;;;;;;36.40;18.48;;;;;;;;;;5026937;28;20463;-56
2022/01/24 08:00:55;;;;;;;37.88;19.13;;;;;;;;;;5029603;28;20558;-55
2022/01/24 08:03:22;;;;;;;36.80;18.55;;;;;;;;;;5046785;28;20021;-55
2022/01/24 08:05:49;;;;;;;34.25;17.23;;;;;;;;;;5040461;28;20065;-55
2022/01/24 08:08:15;;;;;;;33.10;18.10;;;;;;;;;;5027151;28;20041;-55
2022/01/24 08:10:41;;;;;;;32.72;17.55;;;;;;;;;;5026803;28;20029;-55
2022/01/24 08:13:07;;;;;;;32.40;17.30;;;;;;;;;;5046566;28;20032;-56
2022/01/24 08:15:33;;;;;;;33.15;17.85;;;;;;;;;;5047289;28;20103;-55
2022/01/24 08:17:59;;;;;;;36.35;18.58;;;;;;;;;;5046614;28;20028;-55
2022/01/24 08:20:25;;;;;;;34.10;17.50;;;;;;;;;;5027829;28;20124;-56
2022/01/24 08:22:52;;;;;;;33.40;17.88;;;;;;;;;;5027047;28;20104;-56
2022/01/24 08:25:19;;;;;;;33.95;17.65;;;;;;;;;;5029607;28;20109;-56
2022/01/24 08:27:47;;;;;;;32.20;16.15;;;;;;;;;;5044599;28;20060;-55
2022/01/24 08:30:15;;;;;;;30.63;15.88;;;;;;;;;;5032234;28;20025;-56
2022/01/24 08:32:41;;;;;;;31.60;16.90;;;;;;;;;;5026744;28;20029;-56
2022/01/24 08:35:08;;;;;;;29.05;15.00;;;;;;;;;;5026731;28;20041;-55
2022/01/24 08:37:34;;;;;;;27.52;14.77;;;;;;;;;;5026239;28;20516;-56
2022/01/24 08:40:00;;;;;;;25.75;13.90;;;;;;;;;;5026572;28;20451;-57
2022/01/24 08:42:37;;;;;;;36.55;18.70;;;;;;;;;;5026109;28;20037;-55
2022/01/24 08:47:31;;;;;;;43.92;21.90;;;;;;;;;;5026142;28;20409;-55
2022/01/24 08:49:58;;;;;;;46.38;21.38;;;;;;;;;;5026425;28;20029;-56
2022/01/24 08:52:24;;;;;;;40.92;19.77;;;;;;;;;;5025427;28;20504;-56
2022/01/24 08:54:52;;;;;;;38.67;18.73;;;;;;;;;;5026709;28;20435;-56
2022/01/24 08:57:24;;;;;;;36.03;17.00;;;;;;;;;;5029670;28;20029;-56
2022/01/24 08:59:51;;;;;;;31.10;16.45;;;;;;;;;;5033453;28;20079;-56
2022/01/24 09:02:17;;;;;;;32.05;16.33;;;;;;;;;;5027039;28;20584;-56
2022/01/24 09:04:43;;;;;;;30.83;15.93;;;;;;;;;;5026731;28;20038;-56
2022/01/24 09:07:10;;;;;;;28.83;14.77;;;;;;;;;;5024803;28;20026;-57
2022/01/24 09:09:36;;;;;;;26.80;14.43;;;;;;;;;;5029160;28;20511;-56
2022/01/24 09:12:05;;;;;;;26.13;14.18;;;;;;;;;;5038130;28;20460;-56
2022/01/24 09:14:31;;;;;;;24.67;13.25;;;;;;;;;;5045691;28;20025;-56
2022/01/24 09:16:57;;;;;;;24.40;12.38;;;;;;;;;;5038443;28;20033;-56
2022/01/24 09:19:23;;;;;;;22.10;12.43;;;;;;;;;;5026103;28;20120;-56
2022/01/24 09:21:50;;;;;;;24.63;12.68;;;;;;;;;;5033335;28;20037;-57
2022/01/24 09:24:16;;;;;;;23.38;12.00;;;;;;;;;;5026598;28;20025;-57
2022/01/24 09:26:42;;;;;;;22.77;12.30;;;;;;;;;;5025704;28;20029;-56
2022/01/24 09:29:08;;;;;;;19.42;10.65;;;;;;;;;;5026911;28;20067;-56
2022/01/24 09:31:35;;;;;;;18.20;10.18;;;;;;;;;;5038571;28;20033;-55
2022/01/24 09:34:01;;;;;;;18.15;9.55;;;;;;;;;;5046074;28;20021;-56
2022/01/24 09:36:27;;;;;;;18.25;9.52;;;;;;;;;;5043926;28;20400;-54
2022/01/24 09:38:53;;;;;;;16.13;9.23;;;;;;;;;;5041232;28;20061;-53
2022/01/24 09:41:19;;;;;;;18.63;10.23;;;;;;;;;;5036607;28;20029;-55
2022/01/24 09:43:46;;;;;;;18.70;10.00;;;;;;;;;;5041103;28;20035;-54
2022/01/24 09:46:13;;;;;;;19.40;10.48;;;;;;;;;;5045770;28;20025;-54
2022/01/24 09:48:40;;;;;;;17.40;9.85;;;;;;;;;;5045486;28;20037;-53
2022/01/24 09:51:07;;;;;;;17.10;9.55;;;;;;;;;;5041406;28;20047;-54
2022/01/24 09:53:33;;;;;;;16.77;9.70;;;;;;;;;;5045497;28;20037;-54
2022/01/24 09:56:03;;;;;;;18.05;10.18;;;;;;;;;;5045418;28;20032;-53
2022/01/24 09:58:30;;;;;;;19.17;10.35;;;;;;;;;;5044790;28;20021;-55
2022/01/24 10:00:56;;;;;;;27.05;13.88;;;;;;;;;;5044401;28;20021;-54
2022/01/24 10:03:24;;;;;;;27.55;14.25;;;;;;;;;;5046503;28;20527;-55
2022/01/24 10:05:54;;;;;;;27.63;14.85;;;;;;;;;;5036253;28;20084;-55
2022/01/24 10:08:24;;;;;;;25.98;13.40;;;;;;;;;;5029140;28;20522;-55
2022/01/24 10:10:51;;;;;;;23.05;12.25;;;;;;;;;;5029903;28;20029;-55
2022/01/24 10:16:25;;;;;;;25.38;13.23;;;;;;;;;;5048572;28;20040;-56
2022/01/24 10:19:00;;;;;;;25.90;12.80;;;;;;;;;;5049174;28;20029;-56
2022/01/24 10:21:26;;;;;;;24.90;13.57;;;;;;;;;;5047480;28;20036;-56
2022/01/24 10:23:53;;;;;;;23.17;11.98;;;;;;;;;;5046528;28;20038;-56
2022/01/24 10:26:19;;;;;;;23.80;12.13;;;;;;;;;;5049119;28;20017;-56
2022/01/24 10:28:46;;;;;;;22.60;12.20;;;;;;;;;;5045168;28;20505;-56
2022/01/24 10:31:16;;;;;;;22.52;12.07;;;;;;;;;;5033389;28;20029;-56
2022/01/24 10:33:54;;;;;;;23.20;11.80;;;;;;;;;;5044680;28;20037;-57
2022/01/24 10:36:27;;;;;;;25.10;13.20;;;;;;;;;;5043032;28;20022;-57
2022/01/24 10:39:06;;;;;;;23.60;11.83;;;;;;;;;;5041001;28;20208;-57
2022/01/24 10:41:50;;;;;;;21.15;11.27;;;;;;;;;;5028093;28;20041;-57
2022/01/24 10:44:26;;;;;;;19.48;10.45;;;;;;;;;;5037274;28;20028;-57
2022/01/24 10:46:53;;;;;;;18.60;10.07;;;;;;;;;;5048568;28;20028;-56
2022/01/24 10:49:30;;;;;;;18.55;10.55;;;;;;;;;;5035520;28;20040;-56
2022/01/24 10:52:08;;;;;;;19.02;10.50;;;;;;;;;;5044979;28;20112;-56
2022/01/24 10:54:34;;;;;;;17.42;9.95;;;;;;;;;;5036890;28;20036;-57
2022/01/24 10:57:00;;;;;;;17.75;9.90;;;;;;;;;;5048865;28;20029;-57
2022/01/24 10:59:26;;;;;;;16.95;9.75;;;;;;;;;;5047317;28;20030;-56
2022/01/24 11:01:53;;;;;;;17.30;9.70;;;;;;;;;;5037294;28;20037;-56
2022/01/24 11:04:20;;;;;;;16.95;9.43;;;;;;;;;;5028415;28;20035;-58
2022/01/24 11:06:48;;;;;;;13.48;8.45;;;;;;;;;;5032209;28;20030;-55
2022/01/24 11:09:14;;;;;;;18.88;10.80;;;;;;;;;;5027743;28;20030;-56
2022/01/24 11:11:41;;;;;;;13.88;8.05;;;;;;;;;;5038886;28;20408;-56
2022/01/24 11:14:09;;;;;;;15.80;9.15;;;;;;;;;;5047161;28;20082;-57
2022/01/24 11:16:35;;;;;;;15.90;9.40;;;;;;;;;;5030115;28;20021;-57
2022/01/24 11:19:04;;;;;;;16.50;9.43;;;;;;;;;;5028181;28;20044;-56
2022/01/24 11:21:33;;;;;;;16.80;9.70;;;;;;;;;;5028705;28;20037;-57
2022/01/24 11:24:04;;;;;;;14.93;8.98;;;;;;;;;;5038367;28;20033;-59
2022/01/24 11:26:30;;;;;;;13.82;8.75;;;;;;;;;;5036449;28;20397;-59
2022/01/24 11:28:57;;;;;;;15.07;8.73;;;;;;;;;;5046320;28;20107;-59
2022/01/24 11:31:29;;;;;;;15.77;9.00;;;;;;;;;;5039419;28;20032;-59
2022/01/24 11:34:00;;;;;;;14.63;8.45;;;;;;;;;;5046225;28;20085;-59
2022/01/24 11:36:45;;;;;;;13.75;8.35;;;;;;;;;;5048251;28;20028;-59
2022/01/24 11:39:11;;;;;;;17.58;10.65;;;;;;;;;;5040350;28;20036;-59
2022/01/24 11:41:40;;;;;;;17.27;9.85;;;;;;;;;;5031579;28;20025;-59
2022/01/24 11:44:09;;;;;;;16.45;9.68;;;;;;;;;;5047059;28;20641;-59
2022/01/24 11:46:48;;;;;;;17.02;9.35;;;;;;;;;;5037145;28;20099;-59
2022/01/24 11:49:34;;;;;;;18.35;10.07;;;;;;;;;;5032738;28;20519;-59
2022/01/24 11:52:18;;;;;;;17.48;9.88;;;;;;;;;;5039908;28;20493;-59
2022/01/24 11:54:53;;;;;;;;;;;;;;;;;;5030691;28;20100;-59
2022/01/24 11:57:36;;;;;;;16.50;9.98;;;;;;;;;;5040181;28;19923;-59
2022/01/24 12:00:05;;;;;;;19.50;10.55;;;;;;;;;;5028391;28;20033;-59
2022/01/24 12:02:40;;;;;;;18.20;10.55;;;;;;;;;;5027193;28;20392;-59
2022/01/24 12:05:10;;;;;;;16.45;9.85;;;;;;;;;;5027387;28;20546;-59
2022/01/24 12:07:43;;;;;;;17.55;10.65;;;;;;;;;;5032076;28;20047;-59
2022/01/24 12:10:22;;;;;;;18.30;10.88;;;;;;;;;;5046774;28;20048;-59
2022/01/24 12:12:50;;;;;;;19.23;11.32;;;;;;;;;;5047249;28;20020;-59
2022/01/24 12:15:35;;;;;;;18.95;11.23;;;;;;;;;;5037242;28;20021;-60
2022/01/24 12:18:02;;;;;;;20.58;11.90;;;;;;;;;;5044098;28;20059;-60
2022/01/24 12:20:31;;;;;;;19.75;11.50;;;;;;;;;;5056020;28;20025;-59
2022/01/24 12:23:20;;;;;;;19.58;11.23;;;;;;;;;;5026307;28;20148;-59
2022/01/24 12:25:49;;;;;;;18.42;11.13;;;;;;;;;;5034624;28;20036;-59
2022/01/24 12:28:16;;;;;;;16.92;10.48;;;;;;;;;;5046802;28;20086;-59
2022/01/24 12:30:57;;;;;;;17.17;10.00;;;;;;;;;;5044914;28;20060;-59
2022/01/24 12:33:33;;;;;;;18.45;11.10;;;;;;;;;;5044810;28;20077;-59
2022/01/24 12:36:01;;;;;;;17.10;10.50;;;;;;;;;;5036113;28;20085;-59
2022/01/24 12:38:41;;;;;;;18.17;11.00;;;;;;;;;;5047088;28;20082;-59
2022/01/24 12:41:17;;;;;;;15.98;10.02;;;;;;;;;;5033535;28;20605;-59
2022/01/24 12:46:18;;;;;;;19.10;10.20;;;;;;;;;;5026677;28;20112;-59
2022/01/24 12:46:38;;;;;;;20.25;11.85;;;;;;;;;;5026283;28;20037;-59
2022/01/24 12:49:05;;;;;;;15.30;10.05;;;;;;;;;;5040589;28;20044;-59
2022/01/24 12:51:33;;;;;;;14.40;9.20;;;;;;;;;;5036704;28;20030;-59
2022/01/24 12:54:02;;;;;;;14.40;9.65;;;;;;;;;;5027656;28;20079;-59
2022/01/24 12:56:29;;;;;;;20.40;12.23;;;;;;;;;;5028506;28;20439;-59
2022/01/24 12:58:57;;;;;;;20.55;11.23;;;;;;;;;;5044724;28;20416;-59
2022/01/24 13:01:27;;;;;;;18.83;11.38;;;;;;;;;;5044699;28;20024;-59
2022/01/24 13:03:58;;;;;;;23.85;13.15;;;;;;;;;;5044782;28;20029;-59
2022/01/24 13:06:25;;;;;;;28.50;14.75;;;;;;;;;;5044319;28;20136;-59
2022/01/24 13:08:52;;;;;;;23.02;13.77;;;;;;;;;;5044510;28;20032;-59
2022/01/24 13:11:18;;;;;;;22.50;12.75;;;;;;;;;;5044405;28;20577;-60
2022/01/24 13:14:02;;;;;;;19.23;11.68;;;;;;;;;;5044973;28;20033;-59
2022/01/24 13:22:25;;;;;;;17.92;9.90;;;;;;;;;;5044832;28;20515;-59
2022/01/24 13:25:06;;;;;;;17.88;10.80;;;;;;;;;;5044833;28;20053;-57
2022/01/24 13:27:38;;;;;;;17.35;10.38;;;;;;;;;;5044568;28;20056;-57
2022/01/24 13:30:06;;;;;;;15.70;9.65;;;;;;;;;;5044346;28;20124;-57
2022/01/24 13:33:04;;;;;;;14.07;9.00;;;;;;;;;;5044360;28;20079;-57
2022/01/24 13:35:33;;;;;;;17.05;9.52;;;;;;;;;;5043273;28;20029;-56
2022/01/24 13:38:04;;;;;;;14.88;9.48;;;;;;;;;;5046643;28;20025;-57
2022/01/24 13:41:05;;;;;;;14.18;8.95;;;;;;;;;;5048897;28;20561;-57
2022/01/24 13:43:31;;;;;;;15.40;8.60;;;;;;;;;;5048914;28;20024;-57
2022/01/24 13:45:57;;;;;;;13.35;8.98;;;;;;;;;;5049526;28;20500;-57
2022/01/24 13:48:24;;;;;;;13.05;9.00;;;;;;;;;;5048518;28;20036;-57
2022/01/24 13:50:52;;;;;;;13.57;8.50;;;;;;;;;;5048403;28;20033;-57
2022/01/24 13:53:30;;;;;;;14.98;9.35;;;;;;;;;;5048197;28;20497;-57
2022/01/24 13:55:56;;;;;;;14.90;8.63;;;;;;;;;;5047180;28;20029;-57
2022/01/24 13:58:25;;;;;;;15.45;9.10;;;;;;;;;;5047993;28;20024;-57
2022/01/24 14:00:59;;;;;;;14.25;8.13;;;;;;;;;;5048475;28;20099;-57
2022/01/24 14:03:26;;;;;;;14.90;8.82;;;;;;;;;;5047981;28;20028;-57
2022/01/24 14:06:12;;;;;;;16.70;9.57;;;;;;;;;;5047959;28;20412;-57
2022/01/24 14:08:38;;;;;;;15.88;9.80;;;;;;;;;;5047684;28;20037;-57
2022/01/24 14:11:30;;;;;;;13.90;8.85;;;;;;;;;;5048000;28;20033;-57
2022/01/24 14:14:02;;;;;;;14.05;9.27;;;;;;;;;;5048280;28;20436;-57
2022/01/24 14:16:41;;;;;;;16.60;10.80;;;;;;;;;;5048284;28;20025;-57
2022/01/24 14:19:07;;;;;;;16.70;10.55;;;;;;;;;;5048168;28;20515;-57
2022/01/24 14:21:33;;;;;;;17.38;11.27;;;;;;;;;;5047537;28;20103;-57
2022/01/24 14:24:01;;;;;;;20.17;11.52;;;;;;;;;;5048513;28;20159;-57
2022/01/24 14:26:28;;;;;;;18.10;11.38;;;;;;;;;;5047990;28;20033;-57
2022/01/24 14:29:23;;;;;;;16.30;10.18;;;;;;;;;;5047455;28;20017;-57
2022/01/24 14:32:00;;;;;;;20.27;11.38;;;;;;;;;;5047374;28;20046;-57
2022/01/24 14:34:29;;;;;;;16.58;10.25;;;;;;;;;;5047783;28;20036;-57
2022/01/24 14:36:56;;;;;;;14.35;9.43;;;;;;;;;;5046120;28;20025;-57
2022/01/24 14:39:23;;;;;;;17.27;10.30;;;;;;;;;;5047275;28;20416;-57
2022/01/24 14:41:51;;;;;;;15.52;9.73;;;;;;;;;;5047592;28;20025;-57
2022/01/24 14:47:04;;;;;;;16.10;9.82;;;;;;;;;;5047666;28;20044;-57
2022/01/24 14:49:32;;;;;;;16.00;10.18;;;;;;;;;;5046424;28;20068;-57
2022/01/24 14:52:11;;;;;;;15.45;9.70;;;;;;;;;;5047571;28;20410;-57
2022/01/24 14:54:39;;;;;;;15.55;10.02;;;;;;;;;;5047283;28;20420;-57
2022/01/24 14:57:07;;;;;;;14.98;8.88;;;;;;;;;;5047272;28;20678;-57
2022/01/24 14:59:33;;;;;;;13.50;8.40;;;;;;;;;;5046941;28;20427;-57
2022/01/24 15:01:59;;;;;;;12.57;8.43;;;;;;;;;;5047686;28;20025;-57
2022/01/24 15:04:26;;;;;;;14.23;9.18;;;;;;;;;;5046633;28;20471;-57
2022/01/24 15:06:53;;;;;;;11.77;8.30;;;;;;;;;;5045798;28;20120;-58
2022/01/24 15:09:21;;;;;;;12.75;8.30;;;;;;;;;;5046629;28;20041;-57
2022/01/24 15:11:48;;;;;;;12.70;8.63;;;;;;;;;;5046946;28;20100;-58
2022/01/24 15:16:50;;;;;;;13.50;8.57;;;;;;;;;;5046377;28;20405;-58
2022/01/24 15:27:32;;;;;;;19.20;10.73;;;;;;;;;;5046734;28;20112;-57
2022/01/24 15:29:58;;;;;;;16.30;10.50;;;;;;;;;;5047056;28;20563;-58
2022/01/24 15:32:24;;;;;;;16.02;10.52;;;;;;;;;;5046300;28;20504;-58
2022/01/24 15:34:50;;;;;;;15.82;10.43;;;;;;;;;;5046636;28;20028;-58
2022/01/24 15:37:16;;;;;;;16.48;10.27;;;;;;;;;;5046202;28;20025;-58
2022/01/24 15:39:42;;;;;;;15.82;10.57;;;;;;;;;;5046114;28;20057;-58
2022/01/24 15:42:32;;;;;;;17.40;11.27;;;;;;;;;;5043311;28;20068;-57
2022/01/24 15:45:26;;;;;;;15.25;10.48;;;;;;;;;;5039746;28;20112;-57
2022/01/24 15:47:47;;;;;;;15.02;10.27;;;;;;;;;;5027500;28;20042;-57
2022/01/24 15:50:23;;;;;;;14.82;10.10;;;;;;;;;;5027611;28;20033;-57
2022/01/24 15:52:49;;;;;;;14.52;10.00;;;;;;;;;;5027849;28;20021;-60
2022/01/24 15:55:18;;;;;;;16.08;10.13;;;;;;;;;;5036227;28;20029;-60
2022/01/24 15:57:45;;;;;;;15.23;10.13;;;;;;;;;;5039743;28;20557;-58
2022/01/24 16:00:15;;;;;;;13.57;9.82;;;;;;;;;;5040033;28;20036;-57
2022/01/24 16:02:42;;;;;;;16.98;11.40;;;;;;;;;;5035085;28;20551;-59
2022/01/24 16:05:09;;;;;;;15.27;10.65;;;;;;;;;;5034394;28;20156;-60
2022/01/24 16:07:38;;;;;;;18.08;11.10;;;;;;;;;;5041048;28;20028;-60
2022/01/24 16:10:04;;;;;;;16.55;11.07;;;;;;;;;;5043576;28;20124;-60
2022/01/24 16:12:30;;;;;;;16.75;10.98;;;;;;;;;;5034894;28;20456;-60
2022/01/24 16:14:56;;;;;;;15.63;10.23;;;;;;;;;;5037652;28;20091;-59
2022/01/24 16:17:22;;;;;;;16.23;10.80;;;;;;;;;;5039643;28;20020;-58
2022/01/24 16:19:53;;;;;;;16.98;10.73;;;;;;;;;;5043485;28;20507;-59
2022/01/24 16:22:46;;;;;;;20.65;12.60;;;;;;;;;;5040417;28;20027;-59
2022/01/24 16:25:33;;;;;;;23.80;12.70;;;;;;;;;;5037534;28;20033;-59
2022/01/24 16:28:00;;;;;;;16.67;11.55;;;;;;;;;;5034754;28;20029;-59
2022/01/24 16:30:28;;;;;;;17.88;11.20;;;;;;;;;;5044892;28;20115;-59
2022/01/24 16:32:55;;;;;;;15.68;10.27;;;;;;;;;;5030543;28;20040;-59
2022/01/24 16:35:21;;;;;;;16.25;10.35;;;;;;;;;;5041863;28;20119;-59
2022/01/24 16:37:47;;;;;;;16.27;10.18;;;;;;;;;;5044174;28;20021;-59
2022/01/24 16:40:16;;;;;;;14.88;8.70;;;;;;;;;;5031430;28;20043;-59
2022/01/24 16:43:06;;;;;;;17.20;10.18;;;;;;;;;;5039376;28;20032;-59
2022/01/24 16:48:12;;;;;;;;;;;;;;;;;;5044996;28;20044;-59
2022/01/24 16:50:40;;;;;;;17.90;10.43;;;;;;;;;;5038349;28;19916;-59
2022/01/24 16:53:12;;;;;;;17.80;10.15;;;;;;;;;;5029935;28;20043;-59